Nevada Mills, Indiana
Current Conditions -  °F | °C
As of 5:55 AM on Wednesday 22 Oct 2014 (Local Time) from KANQ Reporting Station
Broken Clouds Broken Clouds  
Wind Chill: 36°   Ceiling: 2900
Heat Index: 36°   Visibility: 10mi
Dew Point: 16°   Wind: 3mph
Humidity: 44%   Direction: 10°N
Pressure: 30.28"   Gusts: NA
Location:  41.6594°N, 85.0055°W
Report Text: KANQ 220955Z AUTO 01003KT 10SM SCT013 BKN029 02/M09 A3028 RMK
Loading
Personal Weather Stations






























Interactive Weather Map
Tropical Storm Tracking
New forecast layout! Learn more

10-Day Weather Forecast

Advertisements
Track Severe Weather on mobile